createdAt,value
2017-11-26T00:00:44.683Z,0
2017-11-26T00:01:44.563Z,0
2017-11-26T00:02:44.563Z,0
2017-11-26T00:03:44.567Z,0
2017-11-26T00:04:44.535Z,0
2017-11-26T00:05:44.266Z,0
2017-11-26T00:06:44.460Z,0
2017-11-26T00:07:44.508Z,0
2017-11-26T00:08:44.509Z,0
2017-11-26T00:09:44.233Z,0
2017-11-26T00:10:44.222Z,0
2017-11-26T00:11:44.219Z,0
2017-11-26T00:12:44.203Z,0
2017-11-26T00:13:44.202Z,0
2017-11-26T00:14:43.925Z,0
2017-11-26T00:15:44.437Z,0
2017-11-26T00:16:44.423Z,0
2017-11-26T00:17:44.417Z,0
2017-11-26T00:18:44.402Z,0
2017-11-26T00:19:43.876Z,0
2017-11-26T00:20:44.139Z,0
2017-11-26T00:21:44.219Z,0
2017-11-26T00:22:44.372Z,0
2017-11-26T00:23:44.364Z,0
2017-11-26T00:24:44.353Z,0
2017-11-26T00:25:44.082Z,0
2017-11-26T00:26:44.073Z,0
2017-11-26T00:27:43.805Z,0
2017-11-26T00:28:44.312Z,0
2017-11-26T00:29:44.302Z,0
2017-11-26T00:30:44.034Z,0
2017-11-26T00:31:44.289Z,0
2017-11-26T00:32:44.280Z,0
2017-11-26T00:33:44.114Z,0
2017-11-26T00:34:43.477Z,0
2017-11-26T00:35:43.983Z,0
2017-11-26T00:36:43.980Z,0
2017-11-26T00:37:44.226Z,0
2017-11-26T00:38:44.096Z,0
2017-11-26T00:39:43.950Z,0
2017-11-26T00:40:44.199Z,0
2017-11-26T00:41:43.929Z,0
2017-11-26T00:42:44.174Z,0
2017-11-26T00:43:44.166Z,0
2017-11-26T00:44:43.912Z,0
2017-11-26T00:45:43.913Z,0
2017-11-26T00:46:44.082Z,0
2017-11-26T00:47:43.876Z,0
2017-11-26T00:48:43.603Z,0
2017-11-26T00:49:44.131Z,0
2017-11-26T00:50:44.139Z,0
2017-11-26T00:51:44.101Z,0
2017-11-26T00:52:44.077Z,0
2017-11-26T00:53:43.923Z,0
2017-11-26T00:54:43.806Z,0
2017-11-26T00:55:43.637Z,0
2017-11-26T00:56:44.054Z,0
2017-11-26T00:57:43.616Z,0
2017-11-26T00:58:43.766Z,0
2017-11-26T00:59:44.018Z,0
2017-11-26T01:00:44.007Z,0
2017-11-26T01:01:44.003Z,0
2017-11-26T01:02:43.734Z,0
2017-11-26T01:03:43.734Z,0
2017-11-26T01:04:43.996Z,0
2017-11-26T01:05:44.064Z,0
2017-11-26T01:06:43.960Z,0
2017-11-26T01:07:44.057Z,0
2017-11-26T01:08:43.678Z,0
2017-11-26T01:09:43.925Z,0
2017-11-26T01:10:43.927Z,0
2017-11-26T01:11:43.644Z,0
2017-11-26T01:12:43.637Z,0
2017-11-26T01:13:43.905Z,0
2017-11-26T01:14:43.889Z,0
2017-11-26T01:15:43.866Z,0
2017-11-26T01:16:43.339Z,0
2017-11-26T01:17:43.863Z,0
2017-11-26T01:18:43.687Z,0
2017-11-26T01:19:43.842Z,0
2017-11-26T01:20:43.827Z,0
2017-11-26T01:21:43.835Z,0
2017-11-26T01:22:43.804Z,0
2017-11-26T01:23:43.636Z,0
2017-11-26T01:24:43.265Z,0
2017-11-26T01:25:43.921Z,0
2017-11-26T01:26:43.789Z,0
2017-11-26T01:27:43.771Z,0
2017-11-26T01:28:43.851Z,0
2017-11-26T01:29:43.747Z,0
2017-11-26T01:30:43.210Z,0
2017-11-26T01:31:43.565Z,0
2017-11-26T01:32:43.462Z,0
2017-11-26T01:33:43.437Z,0
2017-11-26T01:34:43.729Z,0
2017-11-26T01:35:43.686Z,0
2017-11-26T01:36:43.677Z,0
2017-11-26T01:37:43.690Z,0
2017-11-26T01:38:43.409Z,0
2017-11-26T01:39:43.385Z,0
2017-11-26T01:40:43.658Z,0
2017-11-26T01:41:43.115Z,0
2017-11-26T01:42:43.457Z,0
2017-11-26T01:43:43.348Z,0
2017-11-26T01:44:43.339Z,0
2017-11-26T01:45:43.428Z,0
2017-11-26T01:46:43.585Z,0
2017-11-26T01:47:43.573Z,0
2017-11-26T01:48:43.556Z,0
2017-11-26T01:49:43.289Z,0
2017-11-26T01:50:43.381Z,0
2017-11-26T01:51:43.533Z,0
2017-11-26T01:52:43.277Z,0
2017-11-26T01:53:43.514Z,0
2017-11-26T01:54:43.503Z,0
2017-11-26T01:55:43.544Z,0
2017-11-26T01:56:43.487Z,0
2017-11-26T01:57:43.584Z,0
2017-11-26T01:58:43.336Z,0
2017-11-26T01:59:43.462Z,0
2017-11-26T02:00:43.188Z,0
2017-11-26T02:01:43.184Z,0
2017-11-26T02:02:43.633Z,0
2017-11-26T02:03:43.419Z,0
2017-11-26T02:04:43.415Z,0
2017-11-26T02:05:43.402Z,0
2017-11-26T02:06:43.140Z,0
2017-11-26T02:07:43.134Z,0
2017-11-26T02:08:43.109Z,0
2017-11-26T02:09:43.105Z,0
2017-11-26T02:10:43.093Z,0
2017-11-26T02:11:43.354Z,0
2017-11-26T02:12:43.334Z,0
2017-11-26T02:13:43.168Z,0
2017-11-26T02:14:42.909Z,0
2017-11-26T02:15:43.048Z,0
2017-11-26T02:16:43.033Z,0
2017-11-26T02:17:43.029Z,0
2017-11-26T02:18:43.016Z,0
2017-11-26T02:19:43.321Z,0
2017-11-26T02:20:42.755Z,0
2017-11-26T02:21:42.993Z,0
2017-11-26T02:22:43.239Z,0
2017-11-26T02:23:42.987Z,0
2017-11-26T02:24:43.065Z,0
2017-11-26T02:25:42.690Z,0
2017-11-26T02:26:43.214Z,0
2017-11-26T02:27:42.932Z,0
2017-11-26T02:28:43.287Z,0
2017-11-26T02:29:43.170Z,0
2017-11-26T02:30:42.912Z,0
2017-11-26T02:31:43.179Z,0
2017-11-26T02:32:42.895Z,0
2017-11-26T02:33:43.139Z,0
2017-11-26T02:34:43.139Z,0
2017-11-26T02:35:42.861Z,0
2017-11-26T02:36:43.113Z,0
2017-11-26T02:37:43.093Z,0
2017-11-26T02:38:42.821Z,0
2017-11-26T02:39:43.079Z,0
2017-11-26T02:40:42.925Z,0
2017-11-26T02:41:42.821Z,0
2017-11-26T02:42:43.064Z,0
2017-11-26T02:43:42.790Z,0
2017-11-26T02:44:43.039Z,0
2017-11-26T02:45:42.819Z,0
2017-11-26T02:46:43.014Z,0
2017-11-26T02:47:42.998Z,0
2017-11-26T02:48:42.473Z,0
2017-11-26T02:49:42.729Z,0
2017-11-26T02:50:43.178Z,0
2017-11-26T02:51:42.708Z,0
2017-11-26T02:52:42.703Z,0
2017-11-26T02:53:42.688Z,0
2017-11-26T02:54:42.687Z,0
2017-11-26T02:55:42.664Z,0
2017-11-26T02:56:42.654Z,0
2017-11-26T02:57:42.649Z,0
2017-11-26T02:58:42.896Z,0
2017-11-26T02:59:42.736Z,0
2017-11-26T03:00:42.355Z,0
2017-11-26T03:01:42.870Z,0
2017-11-26T03:02:42.866Z,0
2017-11-26T03:03:42.337Z,0
2017-11-26T03:04:42.842Z,0
2017-11-26T03:05:42.570Z,0
2017-11-26T03:06:42.662Z,0
2017-11-26T03:07:42.547Z,0
2017-11-26T03:08:42.827Z,0
2017-11-26T03:09:42.800Z,0
2017-11-26T03:10:42.778Z,0
2017-11-26T03:11:42.780Z,0
2017-11-26T03:12:41.984Z,0
2017-11-26T03:13:42.494Z,0
2017-11-26T03:14:42.748Z,0
2017-11-26T03:15:42.219Z,0
2017-11-26T03:16:42.820Z,0
2017-11-26T03:17:42.458Z,0
2017-11-26T03:18:42.446Z,0
2017-11-26T03:19:42.687Z,0
2017-11-26T03:20:42.687Z,0
2017-11-26T03:21:42.421Z,0
2017-11-26T03:22:42.252Z,0
2017-11-26T03:23:42.651Z,0
2017-11-26T03:24:42.387Z,0
2017-11-26T03:25:42.217Z,0
2017-11-26T03:26:42.629Z,0
2017-11-26T03:27:42.365Z,0
2017-11-26T03:28:42.710Z,0
2017-11-26T03:29:42.340Z,0
2017-11-26T03:30:42.608Z,0
2017-11-26T03:31:42.421Z,0
2017-11-26T03:32:42.578Z,0
2017-11-26T03:33:42.305Z,0
2017-11-26T03:34:41.774Z,0
2017-11-26T03:35:42.291Z,0
2017-11-26T03:36:42.633Z,0
2017-11-26T03:37:42.550Z,0
2017-11-26T03:38:42.260Z,0
2017-11-26T03:39:42.242Z,0
2017-11-26T03:40:42.511Z,0
2017-11-26T03:41:42.228Z,0
2017-11-26T03:42:42.591Z,0
2017-11-26T03:43:42.493Z,0
2017-11-26T03:44:42.197Z,0
2017-11-26T03:45:41.927Z,0
2017-11-26T03:46:41.918Z,0
2017-11-26T03:47:42.169Z,0
2017-11-26T03:48:42.421Z,0
2017-11-26T03:49:42.403Z,0
2017-11-26T03:50:42.149Z,0
2017-11-26T03:51:42.139Z,0
2017-11-26T03:52:42.121Z,0
2017-11-26T03:53:42.107Z,0
2017-11-26T03:54:42.377Z,0
2017-11-26T03:55:42.097Z,0
2017-11-26T03:56:42.088Z,0
2017-11-26T03:57:42.332Z,0
2017-11-26T03:58:42.336Z,0
2017-11-26T03:59:42.059Z,0
2017-11-26T04:00:42.313Z,0
2017-11-26T04:01:41.779Z,0
2017-11-26T04:02:42.292Z,0
2017-11-26T04:03:42.014Z,0
2017-11-26T04:04:42.273Z,0
2017-11-26T04:05:42.270Z,0
2017-11-26T04:06:42.260Z,0
2017-11-26T04:07:41.976Z,0
2017-11-26T04:08:41.975Z,0
2017-11-26T04:09:41.961Z,0
2017-11-26T04:10:42.213Z,0
2017-11-26T04:11:42.204Z,0
2017-11-26T04:12:42.200Z,0
2017-11-26T04:13:42.184Z,0
2017-11-26T04:14:41.655Z,0
2017-11-26T04:15:42.169Z,0
2017-11-26T04:16:41.897Z,0
2017-11-26T04:17:41.888Z,0
2017-11-26T04:18:42.160Z,0
2017-11-26T04:19:42.127Z,0
2017-11-26T04:20:41.863Z,0
2017-11-26T04:21:41.596Z,0
2017-11-26T04:22:42.204Z,0
2017-11-26T04:23:42.084Z,0
2017-11-26T04:24:42.080Z,0
2017-11-26T04:25:42.070Z,0
2017-11-26T04:26:42.059Z,0
2017-11-26T04:27:42.059Z,0
2017-11-26T04:28:41.521Z,0
2017-11-26T04:29:41.771Z,0
2017-11-26T04:30:41.505Z,0
2017-11-26T04:31:42.014Z,0
2017-11-26T04:32:42.007Z,0
2017-11-26T04:33:41.934Z,0
2017-11-26T04:34:41.990Z,0
2017-11-26T04:35:41.979Z,0
2017-11-26T04:36:41.973Z,0
2017-11-26T04:37:41.698Z,0
2017-11-26T04:38:41.945Z,0
2017-11-26T04:39:41.680Z,0
2017-11-26T04:40:41.923Z,0
2017-11-26T04:41:41.913Z,0
2017-11-26T04:42:41.129Z,0
2017-11-26T04:43:41.897Z,0
2017-11-26T04:44:41.629Z,0
2017-11-26T04:45:41.621Z,0
2017-11-26T04:46:41.876Z,0
2017-11-26T04:47:41.858Z,0
2017-11-26T04:48:41.334Z,0
2017-11-26T04:49:41.844Z,0
2017-11-26T04:50:41.834Z,0
2017-11-26T04:51:41.823Z,0
2017-11-26T04:52:41.555Z,0
2017-11-26T04:53:41.805Z,0
2017-11-26T04:54:41.809Z,0
2017-11-26T04:55:41.796Z,0
2017-11-26T04:56:41.784Z,0
2017-11-26T04:57:41.510Z,0
2017-11-26T04:58:41.769Z,0
2017-11-26T04:59:41.778Z,0
2017-11-26T05:00:41.573Z,0
2017-11-26T05:01:41.725Z,0
2017-11-26T05:02:41.561Z,0
2017-11-26T05:03:41.191Z,0
2017-11-26T05:04:41.708Z,0
2017-11-26T05:05:41.431Z,0
2017-11-26T05:06:41.798Z,0
2017-11-26T05:07:41.407Z,0
2017-11-26T05:08:41.400Z,0
2017-11-26T05:09:41.651Z,0
2017-11-26T05:10:41.124Z,0
2017-11-26T05:11:41.378Z,0
2017-11-26T05:12:41.362Z,0
2017-11-26T05:13:41.364Z,0
2017-11-26T05:14:41.353Z,0
2017-11-26T05:15:41.338Z,0
2017-11-26T05:16:41.592Z,0
2017-11-26T05:17:41.413Z,0
2017-11-26T05:18:41.666Z,0
2017-11-26T05:19:41.033Z,0
2017-11-26T05:20:41.646Z,0
2017-11-26T05:21:41.550Z,0
2017-11-26T05:22:41.528Z,0
2017-11-26T05:23:40.740Z,0
2017-11-26T05:24:41.003Z,0
2017-11-26T05:25:41.495Z,0
2017-11-26T05:26:41.488Z,0
2017-11-26T05:27:41.481Z,0
2017-11-26T05:28:41.573Z,0
2017-11-26T05:29:41.195Z,0
2017-11-26T05:30:41.454Z,0
2017-11-26T05:31:41.443Z,0
2017-11-26T05:32:41.432Z,0
2017-11-26T05:33:41.419Z,0
2017-11-26T05:34:41.512Z,0
2017-11-26T05:35:40.888Z,0
2017-11-26T05:36:41.135Z,0
2017-11-26T05:37:41.150Z,0
2017-11-26T05:38:41.111Z,0
2017-11-26T05:39:41.374Z,0
2017-11-26T05:40:41.371Z,0
2017-11-26T05:41:41.088Z,0
2017-11-26T05:42:41.075Z,0
2017-11-26T05:43:41.338Z,0
2017-11-26T05:44:41.325Z,0
2017-11-26T05:45:41.421Z,0
2017-11-26T05:46:41.306Z,0
2017-11-26T05:47:41.025Z,0
2017-11-26T05:48:41.289Z,0
2017-11-26T05:49:40.487Z,0
2017-11-26T05:50:40.999Z,0
2017-11-26T05:51:41.083Z,0
2017-11-26T05:52:40.735Z,0
2017-11-26T05:53:40.707Z,0
2017-11-26T05:54:40.960Z,0
2017-11-26T05:55:41.208Z,0
2017-11-26T05:56:40.951Z,0
2017-11-26T05:57:41.208Z,0
2017-11-26T05:58:40.761Z,0
2017-11-26T05:59:40.903Z,0
2017-11-26T06:00:41.157Z,0
2017-11-26T06:01:40.890Z,0
2017-11-26T06:02:40.885Z,0
2017-11-26T06:03:40.869Z,0
2017-11-26T06:04:41.116Z,0
2017-11-26T06:05:40.848Z,0
2017-11-26T06:06:40.851Z,0
2017-11-26T06:07:41.099Z,0
2017-11-26T06:08:40.920Z,0
2017-11-26T06:09:40.829Z,0
2017-11-26T06:10:41.063Z,0
2017-11-26T06:11:40.791Z,0
2017-11-26T06:12:41.146Z,0
2017-11-26T06:13:40.885Z,0
2017-11-26T06:14:40.784Z,0
2017-11-26T06:15:40.750Z,0
2017-11-26T06:16:41.004Z,0
2017-11-26T06:17:40.477Z,0
2017-11-26T06:18:40.990Z,0
2017-11-26T06:19:40.721Z,0
2017-11-26T06:20:40.747Z,0
2017-11-26T06:21:40.961Z,0
2017-11-26T06:22:40.947Z,0
2017-11-26T06:23:40.690Z,0
2017-11-26T06:24:40.923Z,4
2017-11-26T06:25:40.915Z,4
2017-11-26T06:26:40.911Z,0
2017-11-26T06:27:40.385Z,0
2017-11-26T06:28:40.368Z,4
2017-11-26T06:29:40.881Z,4
2017-11-26T06:30:40.724Z,4
2017-11-26T06:31:40.865Z,4
2017-11-26T06:32:40.696Z,4
2017-11-26T06:33:40.598Z,8
2017-11-26T06:34:40.852Z,8
2017-11-26T06:35:40.817Z,12
2017-11-26T06:36:40.842Z,12
2017-11-26T06:37:40.557Z,16
2017-11-26T06:38:40.639Z,16
2017-11-26T06:39:40.521Z,20
2017-11-26T06:40:40.560Z,20
2017-11-26T06:41:40.772Z,24
2017-11-26T06:42:40.531Z,24
2017-11-26T06:43:40.588Z,24
2017-11-26T06:44:40.730Z,28
2017-11-26T06:45:40.470Z,28
2017-11-26T06:46:40.196Z,32
2017-11-26T06:47:40.460Z,36
2017-11-26T06:48:40.802Z,36
2017-11-26T06:49:40.431Z,40
2017-11-26T06:50:40.416Z,40
2017-11-26T06:51:40.666Z,40
2017-11-26T06:52:40.663Z,44
2017-11-26T06:53:40.391Z,48
2017-11-26T06:54:40.649Z,52
2017-11-26T06:55:40.210Z,52
2017-11-26T06:56:40.364Z,60
2017-11-26T06:57:40.614Z,60
2017-11-26T06:58:40.599Z,60
2017-11-26T06:59:40.072Z,56
2017-11-26T07:00:40.586Z,60
2017-11-26T07:01:40.570Z,64
2017-11-26T07:02:40.313Z,60
2017-11-26T07:03:40.040Z,60
2017-11-26T07:04:40.544Z,60
2017-11-26T07:05:40.014Z,56
2017-11-26T07:06:40.629Z,60
2017-11-26T07:07:40.254Z,68
2017-11-26T07:08:40.243Z,76
2017-11-26T07:09:40.595Z,80
2017-11-26T07:10:40.492Z,88
2017-11-26T07:11:40.478Z,96
2017-11-26T07:12:40.206Z,104
2017-11-26T07:13:40.202Z,112
2017-11-26T07:14:40.450Z,112
2017-11-26T07:15:39.929Z,120
2017-11-26T07:16:40.174Z,120
2017-11-26T07:17:40.158Z,120
2017-11-26T07:18:40.149Z,124
2017-11-26T07:19:40.144Z,128
2017-11-26T07:20:40.135Z,124
2017-11-26T07:21:39.873Z,124
2017-11-26T07:22:40.119Z,124
2017-11-26T07:23:40.097Z,128
2017-11-26T07:24:40.384Z,128
2017-11-26T07:25:40.344Z,128
2017-11-26T07:26:40.079Z,132
2017-11-26T07:27:40.329Z,136
2017-11-26T07:28:40.153Z,136
2017-11-26T07:29:40.046Z,140
2017-11-26T07:30:39.780Z,140
2017-11-26T07:31:40.294Z,144
2017-11-26T07:32:40.293Z,152
2017-11-26T07:33:40.265Z,164
2017-11-26T07:34:40.304Z,168
2017-11-26T07:35:39.988Z,172
2017-11-26T07:36:40.233Z,180
2017-11-26T07:37:40.236Z,184
2017-11-26T07:38:40.218Z,188
2017-11-26T07:39:40.214Z,196
2017-11-26T07:40:40.039Z,204
2017-11-26T07:41:39.932Z,212
2017-11-26T07:42:39.662Z,224
2017-11-26T07:43:39.930Z,244
2017-11-26T07:44:40.186Z,248
2017-11-26T07:45:39.910Z,264
2017-11-26T07:46:40.140Z,276
2017-11-26T07:47:40.149Z,280
2017-11-26T07:48:40.126Z,280
2017-11-26T07:49:40.133Z,284
2017-11-26T07:50:40.115Z,280
2017-11-26T07:51:40.094Z,272
2017-11-26T07:52:39.567Z,268
2017-11-26T07:53:39.818Z,276
2017-11-26T07:54:40.072Z,280
2017-11-26T07:55:39.894Z,296
2017-11-26T07:56:39.887Z,304
2017-11-26T07:57:40.063Z,308
2017-11-26T07:58:39.772Z,316
2017-11-26T07:59:39.506Z,320
2017-11-26T08:00:40.014Z,332
2017-11-26T08:01:40.199Z,344
2017-11-26T08:02:39.733Z,328
2017-11-26T08:03:40.000Z,328
2017-11-26T08:04:39.717Z,344
2017-11-26T08:05:39.967Z,340
2017-11-26T08:06:39.692Z,336
2017-11-26T08:07:39.681Z,328
2017-11-26T08:08:39.671Z,324
2017-11-26T08:09:39.761Z,312
2017-11-26T08:10:39.928Z,296
2017-11-26T08:11:39.489Z,280
2017-11-26T08:12:39.919Z,304
2017-11-26T08:13:39.750Z,324
2017-11-26T08:14:39.874Z,320
2017-11-26T08:15:39.872Z,316
2017-11-26T08:16:39.341Z,304
2017-11-26T08:17:39.339Z,308
2017-11-26T08:18:39.692Z,308
2017-11-26T08:19:39.571Z,300
2017-11-26T08:20:39.303Z,300
2017-11-26T08:21:39.391Z,276
2017-11-26T08:22:39.550Z,268
2017-11-26T08:23:39.903Z,272
2017-11-26T08:24:39.261Z,296
2017-11-26T08:25:39.772Z,324
2017-11-26T08:26:39.788Z,352
2017-11-26T08:27:39.592Z,380
2017-11-26T08:28:39.744Z,424
2017-11-26T08:29:39.734Z,444
2017-11-26T08:30:39.728Z,432
2017-11-26T08:31:39.724Z,424
2017-11-26T08:32:39.452Z,416
2017-11-26T08:33:39.793Z,404
2017-11-26T08:34:39.797Z,424
2017-11-26T08:35:39.424Z,428
2017-11-26T08:36:39.671Z,408
2017-11-26T08:37:39.659Z,400
2017-11-26T08:38:39.494Z,440
2017-11-26T08:39:39.381Z,432
2017-11-26T08:40:39.374Z,428
2017-11-26T08:41:39.645Z,460
2017-11-26T08:42:39.352Z,480
2017-11-26T08:43:39.603Z,484
2017-11-26T08:44:39.330Z,468
2017-11-26T08:45:39.692Z,476
2017-11-26T08:46:39.328Z,460
2017-11-26T08:47:39.558Z,424
2017-11-26T08:48:39.300Z,400
2017-11-26T08:49:39.561Z,384
2017-11-26T08:50:39.534Z,360
2017-11-26T08:51:39.269Z,344
2017-11-26T08:52:39.257Z,336
2017-11-26T08:53:38.998Z,360
2017-11-26T08:54:38.978Z,360
2017-11-26T08:55:39.329Z,392
2017-11-26T08:56:39.216Z,440
2017-11-26T08:57:39.319Z,456
2017-11-26T08:58:39.199Z,480
2017-11-26T08:59:39.458Z,472
2017-11-26T09:00:39.196Z,456
2017-11-26T09:01:39.430Z,480
2017-11-26T09:02:39.422Z,508
2017-11-26T09:03:39.410Z,496
2017-11-26T09:04:39.147Z,484
2017-11-26T09:05:39.399Z,432
2017-11-26T09:06:38.864Z,404
2017-11-26T09:07:39.141Z,392
2017-11-26T09:08:39.111Z,404
2017-11-26T09:09:38.833Z,468
2017-11-26T09:10:39.106Z,476
2017-11-26T09:11:39.073Z,468
2017-11-26T09:12:39.429Z,504
2017-11-26T09:13:39.054Z,524
2017-11-26T09:14:39.050Z,548
2017-11-26T09:15:39.409Z,564
2017-11-26T09:16:39.292Z,572
2017-11-26T09:17:39.021Z,576
2017-11-26T09:18:39.020Z,592
2017-11-26T09:19:39.278Z,572
2017-11-26T09:20:38.994Z,532
2017-11-26T09:21:39.246Z,508
2017-11-26T09:22:38.972Z,508
2017-11-26T09:23:39.222Z,512
2017-11-26T09:24:39.211Z,512
2017-11-26T09:25:38.951Z,516
2017-11-26T09:26:39.325Z,516
2017-11-26T09:27:38.931Z,480
2017-11-26T09:28:39.175Z,472
2017-11-26T09:29:39.173Z,432
2017-11-26T09:30:38.910Z,420
2017-11-26T09:31:38.737Z,424
2017-11-26T09:32:38.625Z,456
2017-11-26T09:33:38.870Z,428
2017-11-26T09:34:39.123Z,396
2017-11-26T09:35:38.853Z,376
2017-11-26T09:36:38.843Z,376
2017-11-26T09:37:38.673Z,380
2017-11-26T09:38:39.082Z,404
2017-11-26T09:39:38.813Z,512
2017-11-26T09:40:38.814Z,512
2017-11-26T09:41:38.536Z,472
2017-11-26T09:42:39.149Z,476
2017-11-26T09:43:39.073Z,612
2017-11-26T09:44:38.513Z,656
2017-11-26T09:45:38.498Z,644
2017-11-26T09:46:39.011Z,664
2017-11-26T09:47:38.584Z,816
2017-11-26T09:48:38.475Z,832
2017-11-26T09:49:38.726Z,868
2017-11-26T09:50:38.715Z,896
2017-11-26T09:51:38.729Z,904
2017-11-26T09:52:38.796Z,764
2017-11-26T09:53:38.426Z,792
2017-11-26T09:54:38.943Z,704
2017-11-26T09:55:38.668Z,732
2017-11-26T09:56:38.656Z,776
2017-11-26T09:57:38.656Z,792
2017-11-26T09:58:38.895Z,796
2017-11-26T09:59:38.628Z,780
2017-11-26T10:00:38.876Z,800
2017-11-26T10:01:38.867Z,824
2017-11-26T10:02:38.603Z,864
2017-11-26T10:03:38.594Z,844
2017-11-26T10:04:38.322Z,832
2017-11-26T10:05:38.327Z,784
2017-11-26T10:06:38.669Z,744
2017-11-26T10:07:38.822Z,744
2017-11-26T10:08:38.820Z,768
2017-11-26T10:09:38.540Z,772
2017-11-26T10:10:38.826Z,820
2017-11-26T10:11:38.778Z,860
2017-11-26T10:12:38.766Z,876
2017-11-26T10:13:38.497Z,888
2017-11-26T10:14:38.488Z,904
2017-11-26T10:15:38.319Z,936
2017-11-26T10:16:38.742Z,912
2017-11-26T10:17:38.218Z,1000
2017-11-26T10:18:38.194Z,996
2017-11-26T10:19:38.194Z,928
2017-11-26T10:20:38.433Z,944
2017-11-26T10:21:38.687Z,1040
2017-11-26T10:22:38.794Z,964
2017-11-26T10:23:38.673Z,892
2017-11-26T10:24:38.404Z,924
2017-11-26T10:25:37.868Z,924
2017-11-26T10:26:38.646Z,932
2017-11-26T10:27:38.664Z,952
2017-11-26T10:28:38.099Z,1020
2017-11-26T10:29:38.352Z,1036
2017-11-26T10:30:38.600Z,1048
2017-11-26T10:31:38.436Z,996
2017-11-26T10:32:38.324Z,988
2017-11-26T10:33:38.414Z,956
2017-11-26T10:34:38.052Z,936
2017-11-26T10:35:38.326Z,920
2017-11-26T10:36:38.283Z,884
2017-11-26T10:37:38.272Z,908
2017-11-26T10:38:38.269Z,900
2017-11-26T10:39:38.610Z,944
2017-11-26T10:40:38.504Z,964
2017-11-26T10:41:38.255Z,964
2017-11-26T10:42:38.502Z,940
2017-11-26T10:43:37.964Z,948
2017-11-26T10:44:38.466Z,972
2017-11-26T10:45:37.938Z,968
2017-11-26T10:46:38.448Z,984
2017-11-26T10:47:38.182Z,1040
2017-11-26T10:48:38.280Z,1048
2017-11-26T10:49:38.267Z,1060
2017-11-26T10:50:37.899Z,1060
2017-11-26T10:51:38.404Z,1076
2017-11-26T10:52:37.875Z,1064
2017-11-26T10:53:38.389Z,1096
2017-11-26T10:54:38.382Z,1096
2017-11-26T10:55:38.111Z,1088
2017-11-26T10:56:37.837Z,1080
2017-11-26T10:57:37.834Z,1088
2017-11-26T10:58:38.343Z,1044
2017-11-26T10:59:38.335Z,1008
2017-11-26T11:00:38.076Z,976
2017-11-26T11:01:38.049Z,948
2017-11-26T11:02:38.048Z,988
2017-11-26T11:03:38.030Z,972
2017-11-26T11:04:38.282Z,944
2017-11-26T11:05:38.274Z,952
2017-11-26T11:06:38.268Z,940
2017-11-26T11:07:37.837Z,1004
2017-11-26T11:08:37.740Z,912
2017-11-26T11:09:38.238Z,844
2017-11-26T11:10:37.965Z,784
2017-11-26T11:11:38.224Z,748
2017-11-26T11:12:38.212Z,864
2017-11-26T11:13:37.943Z,852
2017-11-26T11:14:37.933Z,808
2017-11-26T11:15:38.285Z,864
2017-11-26T11:16:38.163Z,916
2017-11-26T11:17:38.255Z,968
2017-11-26T11:18:37.895Z,1024
2017-11-26T11:19:37.894Z,1008
2017-11-26T11:20:38.127Z,1016
2017-11-26T11:21:37.969Z,1032
2017-11-26T11:22:37.592Z,1032
2017-11-26T11:23:38.097Z,1044
2017-11-26T11:24:38.102Z,1048
2017-11-26T11:25:38.080Z,1004
2017-11-26T11:26:37.560Z,956
2017-11-26T11:27:38.077Z,896
2017-11-26T11:28:37.802Z,864
2017-11-26T11:29:38.071Z,892
2017-11-26T11:30:37.773Z,944
2017-11-26T11:31:37.773Z,1008
2017-11-26T11:32:37.512Z,1024
2017-11-26T11:33:37.748Z,968
2017-11-26T11:34:37.478Z,960
2017-11-26T11:35:37.754Z,1112
2017-11-26T11:36:37.717Z,1124
2017-11-26T11:37:37.707Z,1156
2017-11-26T11:38:37.707Z,1160
2017-11-26T11:39:37.955Z,1144
2017-11-26T11:40:37.163Z,1156
2017-11-26T11:41:37.771Z,1176
2017-11-26T11:42:37.916Z,1296
2017-11-26T11:43:37.752Z,1472
2017-11-26T11:44:37.897Z,1604
2017-11-26T11:45:37.633Z,1624
2017-11-26T11:46:37.896Z,1596
2017-11-26T11:47:37.713Z,1504
2017-11-26T11:48:37.614Z,1492
2017-11-26T11:49:37.846Z,1424
2017-11-26T11:50:37.585Z,1340
2017-11-26T11:51:37.574Z,1324
2017-11-26T11:52:37.576Z,1272
2017-11-26T11:53:37.584Z,1004
2017-11-26T11:54:37.902Z,1336
2017-11-26T11:55:37.812Z,1248
2017-11-26T11:56:37.525Z,1228
2017-11-26T11:57:37.293Z,1264
2017-11-26T11:58:37.790Z,1128
2017-11-26T11:59:37.498Z,940
2017-11-26T12:00:37.490Z,856
2017-11-26T12:01:37.740Z,808
2017-11-26T12:02:37.211Z,680
2017-11-26T12:03:37.830Z,688
2017-11-26T12:04:37.712Z,840
2017-11-26T12:05:37.697Z,1080
2017-11-26T12:06:37.690Z,1156
2017-11-26T12:07:37.159Z,1056
2017-11-26T12:08:37.510Z,1024
2017-11-26T12:09:37.672Z,996
2017-11-26T12:10:37.648Z,960
2017-11-26T12:11:37.638Z,900
2017-11-26T12:12:37.371Z,876
2017-11-26T12:13:37.100Z,824
2017-11-26T12:14:37.620Z,776
2017-11-26T12:15:37.704Z,788
2017-11-26T12:16:37.071Z,808
2017-11-26T12:17:37.067Z,836
2017-11-26T12:18:37.410Z,772
2017-11-26T12:19:36.785Z,760
2017-11-26T12:20:37.547Z,720
2017-11-26T12:21:37.026Z,692
2017-11-26T12:22:37.012Z,684
2017-11-26T12:23:37.263Z,652
2017-11-26T12:24:37.515Z,624
2017-11-26T12:25:37.248Z,596
2017-11-26T12:26:36.973Z,636
2017-11-26T12:27:37.234Z,668
2017-11-26T12:28:37.310Z,776
2017-11-26T12:29:37.470Z,752
2017-11-26T12:30:37.561Z,820
2017-11-26T12:31:37.182Z,724
2017-11-26T12:32:36.919Z,672
2017-11-26T12:33:37.425Z,780
2017-11-26T12:34:37.163Z,776
2017-11-26T12:35:37.254Z,776
2017-11-26T12:36:37.390Z,808
2017-11-26T12:37:37.398Z,888
2017-11-26T12:38:37.112Z,940
2017-11-26T12:39:37.396Z,928
2017-11-26T12:40:37.455Z,872
2017-11-26T12:41:37.082Z,892
2017-11-26T12:42:37.075Z,940
2017-11-26T12:43:36.816Z,992
2017-11-26T12:44:37.056Z,1096
2017-11-26T12:45:37.336Z,1208
2017-11-26T12:46:37.042Z,1288
2017-11-26T12:47:36.508Z,928
2017-11-26T12:48:37.278Z,684
2017-11-26T12:49:37.008Z,576
2017-11-26T12:50:37.257Z,528
2017-11-26T12:51:36.981Z,568
2017-11-26T12:52:36.981Z,868
2017-11-26T12:53:37.232Z,1176
2017-11-26T12:54:37.230Z,1528
2017-11-26T12:55:37.217Z,1528
2017-11-26T12:56:36.939Z,1520
2017-11-26T12:57:37.189Z,1612
2017-11-26T12:58:37.189Z,1356
2017-11-26T12:59:37.272Z,1060
2017-11-26T13:00:37.198Z,1064
2017-11-26T13:01:36.890Z,1208
2017-11-26T13:02:36.883Z,1028
2017-11-26T13:03:36.868Z,800
2017-11-26T13:04:37.218Z,784
2017-11-26T13:05:36.851Z,852
2017-11-26T13:06:36.844Z,960
2017-11-26T13:07:36.569Z,1116
2017-11-26T13:08:37.085Z,1276
2017-11-26T13:09:37.180Z,1336
2017-11-26T13:10:36.547Z,1528
2017-11-26T13:11:36.533Z,1592
2017-11-26T13:12:36.887Z,1212
2017-11-26T13:13:36.776Z,936
2017-11-26T13:14:36.862Z,840
2017-11-26T13:15:37.011Z,960
2017-11-26T13:16:37.005Z,1048
2017-11-26T13:17:37.009Z,916
2017-11-26T13:18:36.202Z,920
2017-11-26T13:19:36.981Z,1260
2017-11-26T13:20:36.967Z,1344
2017-11-26T13:21:36.437Z,1268
2017-11-26T13:22:36.700Z,1236
2017-11-26T13:23:36.671Z,1096
2017-11-26T13:24:36.665Z,776
2017-11-26T13:25:36.909Z,684
2017-11-26T13:26:36.926Z,920
2017-11-26T13:27:37.101Z,880
2017-11-26T13:28:36.895Z,968
2017-11-26T13:29:36.451Z,976
2017-11-26T13:30:36.872Z,1164
2017-11-26T13:31:36.847Z,1044
2017-11-26T13:32:36.855Z,924
2017-11-26T13:33:36.057Z,892
2017-11-26T13:34:36.306Z,764
2017-11-26T13:35:36.836Z,760
2017-11-26T13:36:36.547Z,1124
2017-11-26T13:37:36.276Z,1208
2017-11-26T13:38:36.785Z,1152
2017-11-26T13:39:36.517Z,968
2017-11-26T13:40:36.763Z,1088
2017-11-26T13:41:36.240Z,1072
2017-11-26T13:42:36.328Z,1312
2017-11-26T13:43:36.751Z,1500
2017-11-26T13:44:36.724Z,1440
2017-11-26T13:45:36.457Z,1408
2017-11-26T13:46:36.450Z,1516
2017-11-26T13:47:36.694Z,1460
2017-11-26T13:48:36.691Z,1208
2017-11-26T13:49:36.157Z,1120
2017-11-26T13:50:36.413Z,1304
2017-11-26T13:51:36.665Z,1304
2017-11-26T13:52:36.655Z,1056
2017-11-26T13:53:36.380Z,980
2017-11-26T13:54:36.367Z,1020
2017-11-26T13:55:36.619Z,1016
2017-11-26T13:56:36.353Z,888
2017-11-26T13:57:36.617Z,804
2017-11-26T13:58:36.325Z,648
2017-11-26T13:59:36.418Z,564
2017-11-26T14:00:36.570Z,544
2017-11-26T14:01:36.301Z,524
2017-11-26T14:02:36.543Z,488
2017-11-26T14:03:36.279Z,512
2017-11-26T14:04:36.637Z,564
2017-11-26T14:05:35.999Z,612
2017-11-26T14:06:36.510Z,636
2017-11-26T14:07:36.240Z,676
2017-11-26T14:08:36.228Z,660
2017-11-26T14:09:35.728Z,652
2017-11-26T14:10:36.464Z,576
2017-11-26T14:11:36.201Z,556